Federal Sable — V7WS4 — position and weather

sailwx.info

Track history (hours):
 
Tides and Currents Weather Stations Pressure Air Temp Water Temp Dewpoint Dewpoint Depression Visibility Wind Speed Wind Dir Waves Ship Positions

Federal Sable

Last reported at 2017-Nov-24 11:48 UTC. Time now 2017-Nov-24 15:06 UTC.
Position S 00°07' W 047°47'.

Length 190 m; draft 10.7 m.

Type: Cargo ship. MMSI: 538004380.

Date/timePositionNaut miles runAvg speedWind from/ knotsBaromVisibWave heightAir tempDewpointWater temp
2017-Nov-24 11:48S 00°07' W 047°47'412.0
2017-Nov-24 11:30S 00°10' W 047°50'612.1
2017-Nov-24 11:00S 00°14' W 047°54'611.9
2017-Nov-24 10:30S 00°18' W 047°58'612.4
2017-Nov-24 10:00S 00°20' W 048°04'712.7
2017-Nov-24 09:28S 00°24' W 048°10'3412.7
2017-Nov-24 06:46S 00°52' W 048°29'311.4
2017-Nov-24 06:30S 00°55' W 048°28'4 7.3
2017-Nov-24 05:56S 00°59' W 048°27'4 9.7
2017-Nov-24 05:30S 01°03' W 048°29'5 9.8
2017-Nov-24 04:58S 01°07' W 048°32'4 8.3
2017-Nov-24 04:30S 01°11' W 048°34'2 4.0
2017-Nov-24 04:00S 01°12' W 048°34'5 9.1
2017-Nov-24 03:30S 01°16' W 048°37'510.5
2017-Nov-24 03:00S 01°20' W 048°40'510.5
2017-Nov-24 02:30S 01°25' W 048°43'510.8
2017-Nov-24 02:01S 01°30' W 048°45'3 4.3
2017-Nov-24 01:25S 01°32' W 048°45'0 0.0
2017-Nov-23 23:48S 01°32' W 048°45'0 0.0
2017-Nov-23 23:24S 01°32' W 048°45'0 0.0
2017-Nov-23 23:00S 01°32' W 048°45'0 0.0
2017-Nov-23 22:12S 01°32' W 048°45'0 0.0
2017-Nov-23 21:48S 01°32' W 048°45'0 0.0
2017-Nov-23 09:24S 01°32' W 048°45'0 0.0
2017-Nov-23 08:24S 01°32' W 048°45'0 0.0
2017-Nov-23 08:00S 01°32' W 048°45'0 0.0
2017-Nov-23 07:31S 01°32' W 048°45'0 0.0
2017-Nov-23 06:55S 01°32' W 048°45'0 0.0
2017-Nov-23 06:18S 01°32' W 048°45'0 0.0
2017-Nov-23 06:00S 01°32' W 048°45'0 0.0
2017-Nov-23 05:24S 01°32' W 048°45'0 0.0
2017-Nov-23 03:36S 01°32' W 048°45'0 0.0
2017-Nov-23 02:18S 01°32' W 048°45'0 0.0
2017-Nov-23 01:36S 01°32' W 048°45'0 0.0
2017-Nov-23 01:24S 01°32' W 048°45'0 0.0
2017-Nov-22 22:42S 01°32' W 048°45'0 0.0
2017-Nov-22 22:30S 01°32' W 048°45'  
Track history (hours):
 
Tides and Currents Weather Stations Pressure Air Temp Water Temp Dewpoint Dewpoint Depression Visibility Wind Speed Wind Dir Waves Ship Positions

Federal Sable

Last reported at 2017-Nov-24 11:48 UTC. Time now 2017-Nov-24 15:06 UTC.
Position S 00°07' W 047°47'.

Length 190 m; draft 10.7 m.

Type: Cargo ship. MMSI: 538004380.

Date/timePositionNaut miles runAvg speedWind from/ knotsBaromVisibWave heightAir tempDewpointWater temp
2017-Nov-24 11:48S 00°07' W 047°47'412.0
2017-Nov-24 11:30S 00°10' W 047°50'612.1
2017-Nov-24 11:00S 00°14' W 047°54'611.9
2017-Nov-24 10:30S 00°18' W 047°58'612.4
2017-Nov-24 10:00S 00°20' W 048°04'712.7
2017-Nov-24 09:28S 00°24' W 048°10'3412.7
2017-Nov-24 06:46S 00°52' W 048°29'311.4
2017-Nov-24 06:30S 00°55' W 048°28'4 7.3
2017-Nov-24 05:56S 00°59' W 048°27'4 9.7
2017-Nov-24 05:30S 01°03' W 048°29'5 9.8
2017-Nov-24 04:58S 01°07' W 048°32'4 8.3
2017-Nov-24 04:30S 01°11' W 048°34'2 4.0
2017-Nov-24 04:00S 01°12' W 048°34'5 9.1
2017-Nov-24 03:30S 01°16' W 048°37'510.5
2017-Nov-24 03:00S 01°20' W 048°40'510.5
2017-Nov-24 02:30S 01°25' W 048°43'510.8
2017-Nov-24 02:01S 01°30' W 048°45'3 4.3
2017-Nov-24 01:25S 01°32' W 048°45'0 0.0
2017-Nov-23 23:48S 01°32' W 048°45'0 0.0
2017-Nov-23 23:24S 01°32' W 048°45'0 0.0
2017-Nov-23 23:00S 01°32' W 048°45'0 0.0
2017-Nov-23 22:12S 01°32' W 048°45'0 0.0
2017-Nov-23 21:48S 01°32' W 048°45'0 0.0
2017-Nov-23 09:24S 01°32' W 048°45'0 0.0
2017-Nov-23 08:24S 01°32' W 048°45'0 0.0
2017-Nov-23 08:00S 01°32' W 048°45'0 0.0
2017-Nov-23 07:31S 01°32' W 048°45'0 0.0
2017-Nov-23 06:55S 01°32' W 048°45'0 0.0
2017-Nov-23 06:18S 01°32' W 048°45'0 0.0
2017-Nov-23 06:00S 01°32' W 048°45'0 0.0
2017-Nov-23 05:24S 01°32' W 048°45'0 0.0
2017-Nov-23 03:36S 01°32' W 048°45'0 0.0
2017-Nov-23 02:18S 01°32' W 048°45'0 0.0
2017-Nov-23 01:36S 01°32' W 048°45'0 0.0
2017-Nov-23 01:24S 01°32' W 048°45'0 0.0
2017-Nov-22 22:42S 01°32' W 048°45'0 0.0
2017-Nov-22 22:30S 01°32' W 048°45'  

Dump ship's entire track history